sensor_id;sensor_type;location;lat;lon;timestamp;pressure;altitude;pressure_sealevel;temperature;humidity
63715;BME280;49858;48.956;9.076;2023-06-14T00:02:26;98259.19;;;20.59;72.85
63715;BME280;49858;48.956;9.076;2023-06-14T00:04:54;98259.44;;;20.48;71.77
63715;BME280;49858;48.956;9.076;2023-06-14T00:07:32;98259.63;;;20.57;71.18
63715;BME280;49858;48.956;9.076;2023-06-14T00:10:02;98268.22;;;20.47;72.00
63715;BME280;49858;48.956;9.076;2023-06-14T00:12:31;98261.94;;;20.42;70.28
63715;BME280;49858;48.956;9.076;2023-06-14T00:14:59;98265.13;;;20.41;71.64
63715;BME280;49858;48.956;9.076;2023-06-14T00:17:28;98261.81;;;20.30;70.84
63715;BME280;49858;48.956;9.076;2023-06-14T00:19:56;98257.03;;;20.10;72.39
63715;BME280;49858;48.956;9.076;2023-06-14T00:22:24;98247.72;;;20.17;73.78
63715;BME280;49858;48.956;9.076;2023-06-14T00:24:55;98246.13;;;20.16;74.38
63715;BME280;49858;48.956;9.076;2023-06-14T00:27:24;98250.94;;;20.15;73.56
63715;BME280;49858;48.956;9.076;2023-06-14T00:29:52;98245.28;;;20.19;73.61
63715;BME280;49858;48.956;9.076;2023-06-14T00:32:20;98246.78;;;20.24;73.53
63715;BME280;49858;48.956;9.076;2023-06-14T00:34:55;98258.16;;;20.33;73.23
63715;BME280;49858;48.956;9.076;2023-06-14T00:37:22;98254.13;;;20.34;72.26
63715;BME280;49858;48.956;9.076;2023-06-14T00:39:50;98257.94;;;20.24;74.29
63715;BME280;49858;48.956;9.076;2023-06-14T00:42:26;98241.34;;;20.16;74.43
63715;BME280;49858;48.956;9.076;2023-06-14T00:44:54;98247.13;;;20.26;72.71
63715;BME280;49858;48.956;9.076;2023-06-14T00:47:23;98246.78;;;20.24;72.22
63715;BME280;49858;48.956;9.076;2023-06-14T00:49:51;98244.81;;;20.04;74.16
63715;BME280;49858;48.956;9.076;2023-06-14T00:52:20;98241.19;;;20.04;74.37
63715;BME280;49858;48.956;9.076;2023-06-14T00:54:48;98247.94;;;19.66;76.47
63715;BME280;49858;48.956;9.076;2023-06-14T00:57:16;98245.66;;;19.38;79.41
63715;BME280;49858;48.956;9.076;2023-06-14T00:59:47;98247.50;;;19.01;82.27
63715;BME280;49858;48.956;9.076;2023-06-14T01:02:15;98253.53;;;18.73;85.04
63715;BME280;49858;48.956;9.076;2023-06-14T01:04:43;98252.81;;;18.65;84.54
63715;BME280;49858;48.956;9.076;2023-06-14T01:07:15;98250.28;;;18.78;83.73
63715;BME280;49858;48.956;9.076;2023-06-14T01:09:48;98255.00;;;18.23;87.92
63715;BME280;49858;48.956;9.076;2023-06-14T01:12:24;98256.03;;;17.34;93.42
63715;BME280;49858;48.956;9.076;2023-06-14T01:14:56;98256.88;;;18.03;89.40
63715;BME280;49858;48.956;9.076;2023-06-14T01:17:24;98253.09;;;18.47;86.79
63715;BME280;49858;48.956;9.076;2023-06-14T01:19:53;98252.03;;;18.64;86.66
63715;BME280;49858;48.956;9.076;2023-06-14T01:22:25;98250.69;;;18.76;85.44
63715;BME280;49858;48.956;9.076;2023-06-14T01:24:55;98255.13;;;18.74;84.93
63715;BME280;49858;48.956;9.076;2023-06-14T01:27:24;98255.34;;;18.56;86.53
63715;BME280;49858;48.956;9.076;2023-06-14T01:29:55;98264.31;;;18.13;87.74
63715;BME280;49858;48.956;9.076;2023-06-14T01:32:24;98263.59;;;17.68;90.84
63715;BME280;49858;48.956;9.076;2023-06-14T01:34:52;98256.19;;;17.57;91.51
63715;BME280;49858;48.956;9.076;2023-06-14T01:37:20;98258.75;;;17.79;90.91
63715;BME280;49858;48.956;9.076;2023-06-14T01:39:48;98263.03;;;18.18;89.29
63715;BME280;49858;48.956;9.076;2023-06-14T01:42:19;98268.63;;;18.18;88.16
63715;BME280;49858;48.956;9.076;2023-06-14T01:44:47;98263.91;;;17.39;93.49
63715;BME280;49858;48.956;9.076;2023-06-14T01:47:15;98266.50;;;17.57;94.10
63715;BME280;49858;48.956;9.076;2023-06-14T01:49:43;98266.47;;;17.98;90.82
63715;BME280;49858;48.956;9.076;2023-06-14T01:52:13;98264.44;;;18.02;92.55
63715;BME280;49858;48.956;9.076;2023-06-14T01:54:42;98273.47;;;18.41;88.30
63715;BME280;49858;48.956;9.076;2023-06-14T01:57:10;98274.34;;;18.34;88.76
63715;BME280;49858;48.956;9.076;2023-06-14T01:59:39;98273.50;;;18.06;89.38
63715;BME280;49858;48.956;9.076;2023-06-14T02:02:07;98273.91;;;18.08;88.32
63715;BME280;49858;48.956;9.076;2023-06-14T02:04:35;98268.88;;;18.27;86.46
63715;BME280;49858;48.956;9.076;2023-06-14T02:07:03;98274.81;;;18.29;86.18
63715;BME280;49858;48.956;9.076;2023-06-14T02:09:32;98272.97;;;18.19;88.74
63715;BME280;49858;48.956;9.076;2023-06-14T02:12:00;98269.44;;;18.14;89.50
63715;BME280;49858;48.956;9.076;2023-06-14T02:14:28;98271.22;;;18.32;87.35
63715;BME280;49858;48.956;9.076;2023-06-14T02:16:58;98263.00;;;18.48;87.04
63715;BME280;49858;48.956;9.076;2023-06-14T02:19:27;98265.66;;;18.59;88.07
63715;BME280;49858;48.956;9.076;2023-06-14T02:21:55;98264.75;;;18.65;88.52
63715;BME280;49858;48.956;9.076;2023-06-14T02:24:23;98268.78;;;18.34;91.65
63715;BME280;49858;48.956;9.076;2023-06-14T02:26:51;98263.91;;;18.11;91.32
63715;BME280;49858;48.956;9.076;2023-06-14T02:29:19;98263.91;;;18.42;89.24
63715;BME280;49858;48.956;9.076;2023-06-14T02:31:47;98264.34;;;17.75;93.18
63715;BME280;49858;48.956;9.076;2023-06-14T02:34:20;98272.69;;;18.09;91.43
63715;BME280;49858;48.956;9.076;2023-06-14T02:36:48;98267.81;;;18.17;89.57
63715;BME280;49858;48.956;9.076;2023-06-14T02:39:16;98264.91;;;18.28;88.59
63715;BME280;49858;48.956;9.076;2023-06-14T02:41:47;98268.69;;;18.10;89.69
63715;BME280;49858;48.956;9.076;2023-06-14T02:44:14;98266.31;;;18.39;87.49
63715;BME280;49858;48.956;9.076;2023-06-14T02:46:43;98269.72;;;18.54;86.76
63715;BME280;49858;48.956;9.076;2023-06-14T02:49:11;98273.41;;;18.17;89.83
63715;BME280;49858;48.956;9.076;2023-06-14T02:51:40;98265.91;;;17.80;93.63
63715;BME280;49858;48.956;9.076;2023-06-14T02:54:08;98268.28;;;17.78;95.27
63715;BME280;49858;48.956;9.076;2023-06-14T02:56:38;98273.53;;;17.69;94.90
63715;BME280;49858;48.956;9.076;2023-06-14T02:59:06;98271.97;;;17.64;95.01
63715;BME280;49858;48.956;9.076;2023-06-14T03:01:37;98273.22;;;17.59;95.24
63715;BME280;49858;48.956;9.076;2023-06-14T03:04:10;98278.72;;;17.67;94.13
63715;BME280;49858;48.956;9.076;2023-06-14T03:06:42;98277.03;;;17.80;94.39
63715;BME280;49858;48.956;9.076;2023-06-14T03:09:11;98274.59;;;17.82;94.34
63715;BME280;49858;48.956;9.076;2023-06-14T03:11:39;98276.84;;;17.94;93.80
63715;BME280;49858;48.956;9.076;2023-06-14T03:14:07;98270.44;;;17.97;93.40
63715;BME280;49858;48.956;9.076;2023-06-14T03:16:36;98278.09;;;18.20;89.16
63715;BME280;49858;48.956;9.076;2023-06-14T03:19:07;98278.06;;;18.24;88.48
63715;BME280;49858;48.956;9.076;2023-06-14T03:21:34;98276.09;;;18.21;89.55
63715;BME280;49858;48.956;9.076;2023-06-14T03:24:04;98287.50;;;18.03;91.31
63715;BME280;49858;48.956;9.076;2023-06-14T03:26:33;98269.53;;;18.07;89.14
63715;BME280;49858;48.956;9.076;2023-06-14T03:29:03;98283.41;;;17.77;92.54
63715;BME280;49858;48.956;9.076;2023-06-14T03:31:31;98272.09;;;17.53;94.33
63715;BME280;49858;48.956;9.076;2023-06-14T03:34:01;98284.31;;;17.22;97.04
63715;BME280;49858;48.956;9.076;2023-06-14T03:36:32;98288.38;;;17.55;94.13
63715;BME280;49858;48.956;9.076;2023-06-14T03:39:01;98282.41;;;17.56;96.53
63715;BME280;49858;48.956;9.076;2023-06-14T03:41:30;98300.84;;;17.81;93.53
63715;BME280;49858;48.956;9.076;2023-06-14T03:43:58;98288.03;;;17.91;92.97
63715;BME280;49858;48.956;9.076;2023-06-14T03:46:26;98294.13;;;17.37;97.58
63715;BME280;49858;48.956;9.076;2023-06-14T03:48:54;98306.53;;;16.70;100.00
63715;BME280;49858;48.956;9.076;2023-06-14T03:51:22;98302.75;;;16.35;100.00
63715;BME280;49858;48.956;9.076;2023-06-14T03:53:51;98313.03;;;16.42;100.00
63715;BME280;49858;48.956;9.076;2023-06-14T03:56:25;98317.78;;;16.48;100.00
63715;BME280;49858;48.956;9.076;2023-06-14T03:58:54;98316.06;;;16.69;100.00
63715;BME280;49858;48.956;9.076;2023-06-14T04:01:24;98317.44;;;16.35;100.00
63715;BME280;49858;48.956;9.076;2023-06-14T04:03:53;98321.06;;;16.25;100.00
63715;BME280;49858;48.956;9.076;2023-06-14T04:06:21;98324.13;;;16.49;100.00
63715;BME280;49858;48.956;9.076;2023-06-14T04:08:51;98333.56;;;16.66;100.00
63715;BME280;49858;48.956;9.076;2023-06-14T04:11:19;98331.06;;;16.89;100.00
63715;BME280;49858;48.956;9.076;2023-06-14T04:13:47;98331.31;;;17.05;100.00
63715;BME280;49858;48.956;9.076;2023-06-14T04:16:16;98329.44;;;16.88;100.00
63715;BME280;49858;48.956;9.076;2023-06-14T04:18:44;98335.13;;;16.67;100.00
63715;BME280;49858;48.956;9.076;2023-06-14T04:21:13;98337.56;;;16.54;100.00
63715;BME280;49858;48.956;9.076;2023-06-14T04:23:40;98345.53;;;16.48;100.00
63715;BME280;49858;48.956;9.076;2023-06-14T04:26:12;98352.66;;;16.46;100.00
63715;BME280;49858;48.956;9.076;2023-06-14T04:28:43;98339.88;;;15.64;100.00
63715;BME280;49858;48.956;9.076;2023-06-14T04:31:11;98346.94;;;15.90;100.00
63715;BME280;49858;48.956;9.076;2023-06-14T04:33:40;98354.13;;;15.48;100.00
63715;BME280;49858;48.956;9.076;2023-06-14T04:36:17;98354.91;;;15.42;100.00
63715;BME280;49858;48.956;9.076;2023-06-14T04:38:47;98351.34;;;15.77;100.00
63715;BME280;49858;48.956;9.076;2023-06-14T04:41:15;98359.50;;;16.30;100.00
63715;BME280;49858;48.956;9.076;2023-06-14T04:43:44;98352.47;;;16.89;100.00
63715;BME280;49858;48.956;9.076;2023-06-14T04:46:15;98358.78;;;16.96;100.00
63715;BME280;49858;48.956;9.076;2023-06-14T04:48:45;98353.91;;;17.07;100.00
63715;BME280;49858;48.956;9.076;2023-06-14T04:51:15;98352.44;;;17.44;100.00
63715;BME280;49858;48.956;9.076;2023-06-14T04:53:47;98361.19;;;17.43;100.00
63715;BME280;49858;48.956;9.076;2023-06-14T04:56:16;98359.41;;;17.63;100.00
63715;BME280;49858;48.956;9.076;2023-06-14T04:58:44;98366.03;;;18.18;100.00
63715;BME280;49858;48.956;9.076;2023-06-14T05:01:13;98364.19;;;18.07;100.00
63715;BME280;49858;48.956;9.076;2023-06-14T05:03:40;98371.97;;;17.82;100.00
63715;BME280;49858;48.956;9.076;2023-06-14T05:06:13;98371.53;;;17.42;100.00
63715;BME280;49858;48.956;9.076;2023-06-14T05:08:41;98375.53;;;17.86;100.00
63715;BME280;49858;48.956;9.076;2023-06-14T05:11:09;98377.66;;;18.09;100.00
63715;BME280;49858;48.956;9.076;2023-06-14T05:13:37;98375.16;;;18.22;100.00
63715;BME280;49858;48.956;9.076;2023-06-14T05:16:06;98386.25;;;18.56;100.00
63715;BME280;49858;48.956;9.076;2023-06-14T05:18:36;98380.88;;;18.42;100.00
63715;BME280;49858;48.956;9.076;2023-06-14T05:21:04;98382.81;;;18.10;100.00
63715;BME280;49858;48.956;9.076;2023-06-14T05:23:33;98378.44;;;18.44;100.00
63715;BME280;49858;48.956;9.076;2023-06-14T05:26:01;98370.50;;;18.76;99.47
63715;BME280;49858;48.956;9.076;2023-06-14T05:28:31;98377.75;;;18.70;98.92
63715;BME280;49858;48.956;9.076;2023-06-14T05:30:59;98378.88;;;18.08;100.00
63715;BME280;49858;48.956;9.076;2023-06-14T05:33:27;98379.75;;;18.66;100.00
63715;BME280;49858;48.956;9.076;2023-06-14T05:35:55;98383.69;;;18.72;100.00
63715;BME280;49858;48.956;9.076;2023-06-14T05:38:23;98387.34;;;18.96;96.65
63715;BME280;49858;48.956;9.076;2023-06-14T05:40:53;98398.88;;;19.25;95.91
63715;BME280;49858;48.956;9.076;2023-06-14T05:43:20;98388.72;;;19.11;98.20
63715;BME280;49858;48.956;9.076;2023-06-14T05:45:48;98395.84;;;18.85;98.78
63715;BME280;49858;48.956;9.076;2023-06-14T05:48:16;98393.78;;;18.59;98.70
63715;BME280;49858;48.956;9.076;2023-06-14T05:50:43;98405.75;;;18.90;98.18
63715;BME280;49858;48.956;9.076;2023-06-14T05:53:11;98399.25;;;18.70;98.98
63715;BME280;49858;48.956;9.076;2023-06-14T05:55:39;98396.34;;;18.77;99.43
63715;BME280;49858;48.956;9.076;2023-06-14T05:58:08;98402.41;;;18.72;100.00
63715;BME280;49858;48.956;9.076;2023-06-14T06:00:37;98404.75;;;19.31;99.00
63715;BME280;49858;48.956;9.076;2023-06-14T06:03:05;98406.06;;;19.50;97.83
63715;BME280;49858;48.956;9.076;2023-06-14T06:05:35;98401.25;;;19.50;96.64
63715;BME280;49858;48.956;9.076;2023-06-14T06:08:03;98398.09;;;19.25;96.92
63715;BME280;49858;48.956;9.076;2023-06-14T06:10:31;98403.69;;;19.48;97.15
63715;BME280;49858;48.956;9.076;2023-06-14T06:12:59;98400.13;;;18.94;100.00
63715;BME280;49858;48.956;9.076;2023-06-14T06:15:28;98401.72;;;19.22;98.36
63715;BME280;49858;48.956;9.076;2023-06-14T06:17:56;98404.28;;;19.63;96.14
63715;BME280;49858;48.956;9.076;2023-06-14T06:20:24;98406.53;;;19.18;98.96
63715;BME280;49858;48.956;9.076;2023-06-14T06:22:55;98408.78;;;19.53;97.42
63715;BME280;49858;48.956;9.076;2023-06-14T06:25:23;98419.44;;;19.35;97.76
63715;BME280;49858;48.956;9.076;2023-06-14T06:27:52;98418.38;;;19.76;95.82
63715;BME280;49858;48.956;9.076;2023-06-14T06:30:20;98416.41;;;19.49;93.67
63715;BME280;49858;48.956;9.076;2023-06-14T06:32:50;98420.94;;;19.66;93.31
63715;BME280;49858;48.956;9.076;2023-06-14T06:35:18;98418.53;;;19.92;92.28
63715;BME280;49858;48.956;9.076;2023-06-14T06:37:46;98418.00;;;19.50;95.60
63715;BME280;49858;48.956;9.076;2023-06-14T06:40:15;98414.44;;;19.23;97.42
63715;BME280;49858;48.956;9.076;2023-06-14T06:42:43;98413.00;;;19.88;95.35
63715;BME280;49858;48.956;9.076;2023-06-14T06:45:12;98421.31;;;20.35;91.51
63715;BME280;49858;48.956;9.076;2023-06-14T06:47:41;98420.19;;;20.53;91.68
63715;BME280;49858;48.956;9.076;2023-06-14T06:50:10;98421.13;;;21.02;87.65
63715;BME280;49858;48.956;9.076;2023-06-14T06:52:38;98435.78;;;20.70;89.89
63715;BME280;49858;48.956;9.076;2023-06-14T06:55:09;98431.44;;;20.49;91.64
63715;BME280;49858;48.956;9.076;2023-06-14T06:57:39;98436.81;;;20.60;88.88
63715;BME280;49858;48.956;9.076;2023-06-14T07:00:08;98432.06;;;21.33;84.99
63715;BME280;49858;48.956;9.076;2023-06-14T07:02:36;98439.28;;;21.30;85.92
63715;BME280;49858;48.956;9.076;2023-06-14T07:05:04;98445.28;;;21.32;82.59
63715;BME280;49858;48.956;9.076;2023-06-14T07:07:35;98436.88;;;21.12;83.73
63715;BME280;49858;48.956;9.076;2023-06-14T07:10:03;98440.47;;;22.14;78.32
63715;BME280;49858;48.956;9.076;2023-06-14T07:12:33;98445.13;;;22.21;78.70
63715;BME280;49858;48.956;9.076;2023-06-14T07:15:06;98453.19;;;21.17;82.95
63715;BME280;49858;48.956;9.076;2023-06-14T07:17:35;98457.44;;;20.86;84.19
63715;BME280;49858;48.956;9.076;2023-06-14T07:20:03;98449.41;;;21.08;85.44
63715;BME280;49858;48.956;9.076;2023-06-14T07:22:40;98459.91;;;21.73;79.65
63715;BME280;49858;48.956;9.076;2023-06-14T07:25:11;98460.25;;;21.91;79.39
63715;BME280;49858;48.956;9.076;2023-06-14T07:27:42;98452.91;;;20.92;85.24
63715;BME280;49858;48.956;9.076;2023-06-14T07:30:10;98463.91;;;22.20;79.74
63715;BME280;49858;48.956;9.076;2023-06-14T07:32:38;98449.81;;;22.53;77.64
63715;BME280;49858;48.956;9.076;2023-06-14T07:35:06;98454.25;;;22.96;79.13
63715;BME280;49858;48.956;9.076;2023-06-14T07:37:34;98451.47;;;23.47;72.47
63715;BME280;49858;48.956;9.076;2023-06-14T07:40:04;98456.31;;;23.21;73.78
63715;BME280;49858;48.956;9.076;2023-06-14T07:42:34;98474.03;;;22.47;78.38
63715;BME280;49858;48.956;9.076;2023-06-14T07:45:02;98468.41;;;22.18;81.13
63715;BME280;49858;48.956;9.076;2023-06-14T07:47:30;98469.88;;;22.81;74.56
63715;BME280;49858;48.956;9.076;2023-06-14T07:49:57;98473.91;;;22.80;78.10
63715;BME280;49858;48.956;9.076;2023-06-14T07:52:25;98468.63;;;23.24;73.32
63715;BME280;49858;48.956;9.076;2023-06-14T07:54:53;98472.84;;;24.30;67.97
63715;BME280;49858;48.956;9.076;2023-06-14T07:57:22;98466.69;;;24.57;63.00
63715;BME280;49858;48.956;9.076;2023-06-14T07:59:50;98462.59;;;22.83;76.16
63715;BME280;49858;48.956;9.076;2023-06-14T08:02:18;98468.88;;;23.16;74.12
63715;BME280;49858;48.956;9.076;2023-06-14T08:04:45;98466.09;;;23.55;71.00
63715;BME280;49858;48.956;9.076;2023-06-14T08:07:14;98473.94;;;23.21;70.43
63715;BME280;49858;48.956;9.076;2023-06-14T08:09:42;98465.75;;;23.40;71.58
63715;BME280;49858;48.956;9.076;2023-06-14T08:12:12;98473.28;;;23.81;69.83
63715;BME280;49858;48.956;9.076;2023-06-14T08:14:41;98466.34;;;24.55;67.16
63715;BME280;49858;48.956;9.076;2023-06-14T08:17:09;98479.25;;;24.31;68.10
63715;BME280;49858;48.956;9.076;2023-06-14T08:19:37;98470.09;;;24.05;70.25
63715;BME280;49858;48.956;9.076;2023-06-14T08:22:04;98464.19;;;24.59;65.98
63715;BME280;49858;48.956;9.076;2023-06-14T08:24:32;98472.50;;;24.28;66.05
63715;BME280;49858;48.956;9.076;2023-06-14T08:27:00;98465.41;;;23.25;69.29
63715;BME280;49858;48.956;9.076;2023-06-14T08:29:28;98471.78;;;23.13;73.06
63715;BME280;49858;48.956;9.076;2023-06-14T08:32:00;98461.97;;;24.54;69.50
63715;BME280;49858;48.956;9.076;2023-06-14T08:34:28;98462.19;;;25.35;65.03
63715;BME280;49858;48.956;9.076;2023-06-14T08:36:56;98473.38;;;24.72;65.05
63715;BME280;49858;48.956;9.076;2023-06-14T08:39:23;98471.16;;;24.67;63.00
63715;BME280;49858;48.956;9.076;2023-06-14T08:41:51;98472.91;;;24.52;65.30
63715;BME280;49858;48.956;9.076;2023-06-14T08:44:19;98478.53;;;25.49;60.26
63715;BME280;49858;48.956;9.076;2023-06-14T08:46:48;98470.34;;;25.11;59.52
63715;BME280;49858;48.956;9.076;2023-06-14T08:49:17;98475.34;;;26.37;51.92
63715;BME280;49858;48.956;9.076;2023-06-14T08:51:45;98474.09;;;25.08;67.09
63715;BME280;49858;48.956;9.076;2023-06-14T08:54:13;98474.13;;;26.56;50.97
63715;BME280;49858;48.956;9.076;2023-06-14T08:56:42;98472.56;;;26.55;52.60
63715;BME280;49858;48.956;9.076;2023-06-14T08:59:10;98469.97;;;24.78;59.74
63715;BME280;49858;48.956;9.076;2023-06-14T09:01:38;98469.94;;;25.84;57.33
63715;BME280;49858;48.956;9.076;2023-06-14T09:04:19;98473.81;;;26.45;50.91
63715;BME280;49858;48.956;9.076;2023-06-14T09:06:48;98467.94;;;27.64;44.20
63715;BME280;49858;48.956;9.076;2023-06-14T09:09:19;98465.94;;;27.89;46.30
63715;BME280;49858;48.956;9.076;2023-06-14T09:11:47;98467.44;;;27.33;49.60
63715;BME280;49858;48.956;9.076;2023-06-14T09:14:15;98463.72;;;27.60;48.51
63715;BME280;49858;48.956;9.076;2023-06-14T09:16:42;98473.19;;;25.82;57.87
63715;BME280;49858;48.956;9.076;2023-06-14T09:19:13;98469.22;;;26.38;55.01
63715;BME280;49858;48.956;9.076;2023-06-14T09:21:42;98463.31;;;26.64;49.70
63715;BME280;49858;48.956;9.076;2023-06-14T09:24:14;98460.56;;;28.24;43.95
63715;BME280;49858;48.956;9.076;2023-06-14T09:26:42;98457.31;;;28.40;44.16
63715;BME280;49858;48.956;9.076;2023-06-14T09:29:09;98468.13;;;26.91;45.42
63715;BME280;49858;48.956;9.076;2023-06-14T09:31:37;98477.41;;;26.73;45.25
63715;BME280;49858;48.956;9.076;2023-06-14T09:34:05;98472.06;;;26.84;44.94
63715;BME280;49858;48.956;9.076;2023-06-14T09:36:33;98457.41;;;27.98;41.35
63715;BME280;49858;48.956;9.076;2023-06-14T09:39:02;98473.09;;;25.95;48.94
63715;BME280;49858;48.956;9.076;2023-06-14T09:41:32;98483.00;;;26.18;50.32
63715;BME280;49858;48.956;9.076;2023-06-14T09:44:01;98478.19;;;27.95;43.35
63715;BME280;49858;48.956;9.076;2023-06-14T09:46:35;98477.25;;;27.89;42.31
63715;BME280;49858;48.956;9.076;2023-06-14T09:49:04;98476.22;;;28.34;40.34
63715;BME280;49858;48.956;9.076;2023-06-14T09:51:33;98481.41;;;28.26;38.42
63715;BME280;49858;48.956;9.076;2023-06-14T09:54:03;98473.66;;;28.12;39.18
63715;BME280;49858;48.956;9.076;2023-06-14T09:56:36;98475.63;;;27.73;39.47
63715;BME280;49858;48.956;9.076;2023-06-14T09:59:04;98471.88;;;28.24;35.98
63715;BME280;49858;48.956;9.076;2023-06-14T10:01:34;98470.66;;;27.92;36.77
63715;BME280;49858;48.956;9.076;2023-06-14T10:04:03;98477.13;;;28.94;33.60
63715;BME280;49858;48.956;9.076;2023-06-14T10:06:37;98468.88;;;28.51;31.76
63715;BME280;49858;48.956;9.076;2023-06-14T10:09:09;98469.38;;;30.39;29.17
63715;BME280;49858;48.956;9.076;2023-06-14T10:11:37;98470.31;;;28.47;32.35
63715;BME280;49858;48.956;9.076;2023-06-14T10:14:10;98469.41;;;30.03;30.48
63715;BME280;49858;48.956;9.076;2023-06-14T10:16:41;98466.97;;;30.98;29.14
63715;BME280;49858;48.956;9.076;2023-06-14T10:19:11;98465.41;;;30.31;28.76
63715;BME280;49858;48.956;9.076;2023-06-14T10:21:43;98471.88;;;29.46;28.10
63715;BME280;49858;48.956;9.076;2023-06-14T10:24:17;98464.78;;;29.86;26.87
63715;BME280;49858;48.956;9.076;2023-06-14T10:26:53;98468.81;;;28.90;28.62
63715;BME280;49858;48.956;9.076;2023-06-14T10:29:25;98472.81;;;28.84;31.10
63715;BME280;49858;48.956;9.076;2023-06-14T10:31:55;98469.28;;;27.45;32.57
63715;BME280;49858;48.956;9.076;2023-06-14T10:34:24;98457.94;;;28.59;30.91
63715;BME280;49858;48.956;9.076;2023-06-14T10:37:02;98465.91;;;29.59;30.81
63715;BME280;49858;48.956;9.076;2023-06-14T10:39:32;98463.84;;;30.96;28.72
63715;BME280;49858;48.956;9.076;2023-06-14T10:42:01;98455.41;;;31.65;25.75
63715;BME280;49858;48.956;9.076;2023-06-14T10:44:38;98453.81;;;32.39;26.11
63715;BME280;49858;48.956;9.076;2023-06-14T10:47:07;98460.56;;;32.04;26.28
63715;BME280;49858;48.956;9.076;2023-06-14T10:49:39;98460.91;;;29.53;26.79
63715;BME280;49858;48.956;9.076;2023-06-14T10:52:09;98459.84;;;29.21;28.01
63715;BME280;49858;48.956;9.076;2023-06-14T10:57:26;98473.56;;;30.43;27.84
63715;BME280;49858;48.956;9.076;2023-06-14T10:59:54;98469.22;;;30.48;26.88
63715;BME280;49858;48.956;9.076;2023-06-14T11:02:37;98464.59;;;28.71;29.11
63715;BME280;49858;48.956;9.076;2023-06-14T11:05:14;98465.53;;;29.86;28.44
63715;BME280;49858;48.956;9.076;2023-06-14T11:07:45;98466.59;;;28.94;28.42
63715;BME280;49858;48.956;9.076;2023-06-14T11:10:19;98460.19;;;27.83;28.86
63715;BME280;49858;48.956;9.076;2023-06-14T11:12:51;98469.59;;;29.50;27.82
63715;BME280;49858;48.956;9.076;2023-06-14T11:15:23;98467.00;;;29.61;28.46
63715;BME280;49858;48.956;9.076;2023-06-14T11:17:55;98467.28;;;30.80;26.79
63715;BME280;49858;48.956;9.076;2023-06-14T11:20:24;98468.66;;;32.11;25.14
63715;BME280;49858;48.956;9.076;2023-06-14T11:22:54;98450.09;;;31.47;24.18
63715;BME280;49858;48.956;9.076;2023-06-14T11:25:22;98461.69;;;34.23;22.56
63715;BME280;49858;48.956;9.076;2023-06-14T11:27:49;98457.16;;;30.73;23.93
63715;BME280;49858;48.956;9.076;2023-06-14T11:30:19;98451.13;;;32.24;25.14
63715;BME280;49858;48.956;9.076;2023-06-14T11:32:47;98458.94;;;33.39;25.41
63715;BME280;49858;48.956;9.076;2023-06-14T11:35:15;98461.31;;;32.42;24.79
63715;BME280;49858;48.956;9.076;2023-06-14T11:37:43;98456.09;;;30.30;26.54
63715;BME280;49858;48.956;9.076;2023-06-14T11:40:12;98460.28;;;30.14;27.68
63715;BME280;49858;48.956;9.076;2023-06-14T11:42:40;98458.72;;;32.44;26.16
63715;BME280;49858;48.956;9.076;2023-06-14T11:45:08;98459.75;;;32.46;26.06
63715;BME280;49858;48.956;9.076;2023-06-14T11:47:38;98453.19;;;34.70;22.90
63715;BME280;49858;48.956;9.076;2023-06-14T11:50:07;98447.59;;;32.40;24.22
63715;BME280;49858;48.956;9.076;2023-06-14T11:52:36;98445.72;;;33.42;23.83
63715;BME280;49858;48.956;9.076;2023-06-14T11:55:04;98453.09;;;34.29;22.70
63715;BME280;49858;48.956;9.076;2023-06-14T11:57:33;98442.91;;;34.45;21.93
63715;BME280;49858;48.956;9.076;2023-06-14T12:00:02;98451.63;;;32.93;21.89
63715;BME280;49858;48.956;9.076;2023-06-14T12:02:38;98449.34;;;30.48;24.57
63715;BME280;49858;48.956;9.076;2023-06-14T12:05:07;98449.25;;;32.10;24.54
63715;BME280;49858;48.956;9.076;2023-06-14T12:07:36;98434.81;;;33.79;22.49
63715;BME280;49858;48.956;9.076;2023-06-14T12:10:07;98450.91;;;33.54;22.33
63715;BME280;49858;48.956;9.076;2023-06-14T12:12:37;98445.50;;;35.01;20.62
63715;BME280;49858;48.956;9.076;2023-06-14T12:15:06;98440.91;;;36.88;18.88
63715;BME280;49858;48.956;9.076;2023-06-14T12:17:34;98443.16;;;34.94;21.05
63715;BME280;49858;48.956;9.076;2023-06-14T12:20:06;98433.81;;;36.57;19.31
63715;BME280;49858;48.956;9.076;2023-06-14T12:22:37;98444.97;;;33.52;20.00
63715;BME280;49858;48.956;9.076;2023-06-14T12:25:05;98444.28;;;31.04;23.34
63715;BME280;49858;48.956;9.076;2023-06-14T12:27:36;98438.34;;;35.79;19.91
63715;BME280;49858;48.956;9.076;2023-06-14T12:30:07;98436.94;;;35.31;20.95
63715;BME280;49858;48.956;9.076;2023-06-14T12:32:35;98436.84;;;33.96;21.35
63715;BME280;49858;48.956;9.076;2023-06-14T12:35:04;98422.66;;;34.48;21.37
63715;BME280;49858;48.956;9.076;2023-06-14T12:37:33;98435.06;;;32.97;23.29
63715;BME280;49858;48.956;9.076;2023-06-14T12:40:01;98431.13;;;34.65;21.81
63715;BME280;49858;48.956;9.076;2023-06-14T12:42:32;98439.00;;;34.95;21.52
63715;BME280;49858;48.956;9.076;2023-06-14T12:45:00;98434.63;;;36.33;20.43
63715;BME280;49858;48.956;9.076;2023-06-14T12:47:28;98432.00;;;37.10;19.20
63715;BME280;49858;48.956;9.076;2023-06-14T12:49:56;98431.56;;;34.80;20.35
63715;BME280;49858;48.956;9.076;2023-06-14T12:52:23;98425.63;;;35.74;19.97
63715;BME280;49858;48.956;9.076;2023-06-14T12:54:53;98417.09;;;36.99;19.90
63715;BME280;49858;48.956;9.076;2023-06-14T12:57:20;98433.56;;;34.91;21.94
63715;BME280;49858;48.956;9.076;2023-06-14T12:59:48;98433.25;;;33.78;22.54
63715;BME280;49858;48.956;9.076;2023-06-14T13:02:17;98432.50;;;34.53;21.59
63715;BME280;49858;48.956;9.076;2023-06-14T13:04:47;98436.66;;;33.66;23.17
63715;BME280;49858;48.956;9.076;2023-06-14T13:07:15;98434.66;;;35.24;21.94
63715;BME280;49858;48.956;9.076;2023-06-14T13:09:43;98439.53;;;34.99;20.53
63715;BME280;49858;48.956;9.076;2023-06-14T13:12:12;98444.41;;;35.70;20.15
63715;BME280;49858;48.956;9.076;2023-06-14T13:14:40;98433.78;;;35.89;20.24